Time;durP1;ratioP1;P1;durP2;ratioP2;P2;SDS_P1;SDS_P2;PMS_P1;PMS_P2;Temp;Humidity;BMP_temperature;BMP_pressure;BME280_temperature;BME280_humidity;BME280_pressure;Samples;Min_cycle;Max_cycle;Signal;HPM_P1;HPM_P2
2022/04/18 00:02:10;;;;;;;18.00;13.00;;;7.30;91.00;;;;;;4961020;28;20039;-83
2022/04/18 00:04:38;;;;;;;18.48;13.55;;;7.20;90.90;;;;;;4992622;28;20572;-83
2022/04/18 00:07:07;;;;;;;19.42;13.35;;;7.20;91.80;;;;;;4977419;28;20039;-83
2022/04/18 00:09:33;;;;;;;18.77;13.00;;;7.20;91.40;;;;;;4958754;28;20487;-83
2022/04/18 00:12:00;;;;;;;18.95;13.70;;;7.10;91.90;;;;;;4943976;28;20061;-83
2022/04/18 00:14:32;;;;;;;18.17;13.05;;;7.10;92.20;;;;;;4976645;28;20039;-83
2022/04/18 00:16:59;;;;;;;17.92;12.85;;;7.10;92.70;;;;;;4992352;28;20093;-83
2022/04/18 00:19:25;;;;;;;18.85;12.98;;;7.00;92.40;;;;;;4961175;28;20035;-83
2022/04/18 00:21:51;;;;;;;19.95;13.23;;;7.10;92.20;;;;;;4960287;28;20092;-83
2022/04/18 00:24:21;;;;;;;18.45;13.40;;;7.00;92.70;;;;;;4960850;28;20035;-83
2022/04/18 00:26:47;;;;;;;19.20;13.90;;;6.90;92.80;;;;;;4977066;28;20409;-83
2022/04/18 00:29:13;;;;;;;17.42;12.73;;;6.90;93.40;;;;;;4961062;28;20047;-83
2022/04/18 00:31:39;;;;;;;19.35;12.88;;;6.80;93.50;;;;;;4977391;28;20132;-83
2022/04/18 00:34:05;;;;;;;19.15;13.98;;;6.80;93.70;;;;;;4960002;28;20402;-83
2022/04/18 00:36:31;;;;;;;21.73;14.20;;;6.80;93.80;;;;;;4961384;28;20043;-83
2022/04/18 00:38:58;;;;;;;22.65;15.75;;;6.80;93.80;;;;;;4980779;28;20035;-83
2022/04/18 00:41:23;;;;;;;23.75;16.52;;;6.80;94.00;;;;;;4981350;28;20082;-83
2022/04/18 00:43:50;;;;;;;27.35;17.38;;;6.80;93.80;;;;;;4964591;28;20077;-83
2022/04/18 00:46:20;;;;;;;28.58;17.50;;;6.80;93.80;;;;;;4982229;28;20035;-83
2022/04/18 00:48:55;;;;;;;28.88;17.55;;;6.80;93.80;;;;;;4979649;28;20450;-83
2022/04/18 00:51:23;;;;;;;29.15;18.95;;;6.80;94.10;;;;;;4980160;28;20051;-83
2022/04/18 00:53:53;;;;;;;37.65;20.80;;;6.80;93.50;;;;;;4980058;28;20081;-83
2022/04/18 00:56:24;;;;;;;33.53;20.05;;;6.80;93.60;;;;;;4981411;28;20117;-83
2022/04/18 00:58:50;;;;;;;35.08;20.40;;;6.80;93.10;;;;;;4964622;28;20035;-83
2022/04/18 01:01:17;;;;;;;36.88;20.45;;;6.80;92.90;;;;;;4980960;28;20049;-83
2022/04/18 01:03:43;;;;;;;29.77;18.23;;;6.90;92.50;;;;;;4962779;28;20093;-83
2022/04/18 01:06:10;;;;;;;26.48;16.63;;;6.90;92.50;;;;;;4964225;28;20098;-83
2022/04/18 01:08:36;;;;;;;22.83;15.38;;;6.80;92.70;;;;;;4963727;28;20078;-83
2022/04/18 01:11:05;;;;;;;19.38;13.23;;;6.90;92.30;;;;;;4980041;28;20043;-83
2022/04/18 01:13:38;;;;;;;20.27;13.95;;;6.90;92.10;;;;;;4963492;28;20058;-83
2022/04/18 01:16:04;;;;;;;20.52;13.52;;;6.90;92.60;;;;;;4980072;28;20089;-83
2022/04/18 01:18:30;;;;;;;20.10;12.98;;;6.90;92.40;;;;;;4979372;28;20043;-83
2022/04/18 01:20:55;;;;;;;18.88;13.35;;;6.90;92.60;;;;;;4964491;28;20039;-83
2022/04/18 01:23:21;;;;;;;19.88;13.20;;;6.80;92.50;;;;;;4964559;28;20133;-83
2022/04/18 01:31:15;;;;;;;19.65;12.60;;;6.80;92.90;;;;;;4980990;28;20039;-83
2022/04/18 01:33:41;;;;;;;19.70;12.93;;;6.70;92.70;;;;;;4979273;28;20042;-83
2022/04/18 01:36:07;;;;;;;18.73;12.95;;;6.60;92.90;;;;;;4963724;28;20039;-83
2022/04/18 01:38:33;;;;;;;18.88;13.05;;;6.60;92.80;;;;;;4963761;28;20045;-83
2022/04/18 01:40:59;;;;;;;17.05;12.55;;;6.60;92.70;;;;;;4963621;28;20129;-83
2022/04/18 01:43:25;;;;;;;15.43;11.90;;;6.60;92.80;;;;;;4963355;28;20537;-83
2022/04/18 01:45:51;;;;;;;18.45;12.02;;;6.60;92.50;;;;;;4964461;28;20419;-83
2022/04/18 01:48:16;;;;;;;17.77;12.00;;;6.70;92.60;;;;;;4961335;28;20042;-83
2022/04/18 01:50:42;;;;;;;17.95;12.05;;;6.60;92.60;;;;;;4963162;28;20035;-83
2022/04/18 01:53:08;;;;;;;18.67;12.68;;;6.60;92.80;;;;;;4963411;28;20049;-83
2022/04/18 01:55:35;;;;;;;17.67;12.65;;;6.60;93.10;;;;;;4963361;28;20042;-83
2022/04/18 01:58:01;;;;;;;27.08;17.23;;;6.40;93.50;;;;;;4978772;28;20057;-83
2022/04/18 02:00:27;;;;;;;38.40;21.42;;;6.40;94.10;;;;;;4978156;28;20046;-83
2022/04/18 02:02:53;;;;;;;36.13;20.70;;;6.40;93.90;;;;;;4961639;28;20447;-83
2022/04/18 02:05:19;;;;;;;32.55;19.40;;;6.50;93.90;;;;;;4963025;28;20050;-83
2022/04/18 02:07:45;;;;;;;29.50;17.45;;;6.40;94.00;;;;;;4964158;28;20449;-83
2022/04/18 02:10:11;;;;;;;25.25;16.00;;;6.40;93.90;;;;;;4964004;28;20122;-83
2022/04/18 02:12:36;;;;;;;22.88;14.98;;;6.30;94.30;;;;;;4963394;28;20491;-83
2022/04/18 02:15:02;;;;;;;20.90;14.05;;;6.30;94.40;;;;;;4979506;28;20035;-83
2022/04/18 02:17:28;;;;;;;19.80;13.70;;;6.20;94.60;;;;;;4978764;28;20466;-83
2022/04/18 02:19:54;;;;;;;20.30;13.25;;;6.20;94.90;;;;;;4963698;28;20050;-83
2022/04/18 02:22:22;;;;;;;18.25;12.63;;;6.20;94.60;;;;;;4963585;28;20070;-83
2022/04/18 02:24:48;;;;;;;19.67;12.85;;;6.30;94.40;;;;;;4964087;28;20403;-83
2022/04/18 02:27:14;;;;;;;20.17;12.73;;;6.20;94.40;;;;;;4994854;28;20130;-83
2022/04/18 02:29:40;;;;;;;20.92;12.90;;;6.20;94.30;;;;;;4999228;28;20106;-83
2022/04/18 02:34:50;;;;;;;19.48;13.45;;;6.10;94.50;;;;;;4984960;28;20105;-83
2022/04/18 02:37:16;;;;;;;22.70;13.77;;;6.10;94.60;;;;;;4962991;28;20043;-83
2022/04/18 02:39:41;;;;;;;21.92;13.93;;;6.10;94.30;;;;;;4979113;28;20038;-83
2022/04/18 02:42:08;;;;;;;26.38;14.60;;;6.10;94.50;;;;;;4962351;28;20038;-83
2022/04/18 02:44:34;;;;;;;24.83;14.13;;;6.00;94.60;;;;;;4979620;28;20505;-83
2022/04/18 02:47:00;;;;;;;23.00;14.43;;;6.00;94.10;;;;;;4963382;28;20279;-83
2022/04/18 02:49:25;;;;;;;21.35;13.63;;;6.00;94.10;;;;;;4963240;28;20406;-83
2022/04/18 02:51:51;;;;;;;21.30;13.30;;;6.00;94.00;;;;;;4979891;28;20046;-83
2022/04/18 02:54:17;;;;;;;18.33;12.38;;;6.10;93.80;;;;;;4979263;28;20506;-83
2022/04/18 02:56:42;;;;;;;19.77;12.40;;;6.10;93.80;;;;;;4963516;28;20047;-83
2022/04/18 02:59:08;;;;;;;17.02;11.68;;;6.10;93.90;;;;;;4962287;28;20039;-83
2022/04/18 03:01:34;;;;;;;18.17;12.07;;;6.70;94.20;;;;;;4978234;28;20129;-83
2022/04/18 03:03:59;;;;;;;18.17;11.57;;;6.10;94.10;;;;;;4962280;28;20124;-83
2022/04/18 03:06:25;;;;;;;16.35;11.25;;;6.00;94.40;;;;;;4978392;28;20047;-83
2022/04/18 03:08:51;;;;;;;18.30;11.32;;;6.00;94.60;;;;;;4961691;28;20043;-83
2022/04/18 03:11:16;;;;;;;16.40;11.25;;;5.90;95.00;;;;;;4977601;28;20518;-83
2022/04/18 03:13:46;;;;;;;15.40;11.20;;;5.90;95.00;;;;;;4976426;28;20078;-83
2022/04/18 03:16:13;;;;;;;16.67;10.93;;;5.90;95.00;;;;;;4960899;28;20038;-83
2022/04/18 03:18:39;;;;;;;17.55;10.60;;;5.90;95.10;;;;;;4959912;28;20038;-84
2022/04/18 03:21:06;;;;;;;17.05;10.93;;;5.90;94.70;;;;;;4976850;28;20051;-84
2022/04/18 03:23:32;;;;;;;15.85;11.00;;;5.90;94.80;;;;;;4942666;28;20047;-84
2022/04/18 03:25:58;;;;;;;16.92;11.27;;;5.90;94.80;;;;;;4974643;28;20097;-84
2022/04/18 03:28:25;;;;;;;17.95;11.32;;;5.80;95.00;;;;;;4974297;28;20408;-83
2022/04/18 03:30:52;;;;;;;17.17;11.93;;;5.80;95.00;;;;;;4975178;28;20039;-83
2022/04/18 03:33:17;;;;;;;16.58;11.25;;;5.80;95.20;;;;;;4975804;28;20038;-83
2022/04/18 03:41:14;;;;;;;26.95;14.95;;;5.80;95.60;;;;;;4962911;28;20126;-83
2022/04/18 03:43:40;;;;;;;26.77;16.08;;;5.70;95.90;;;;;;4960244;28;20043;-83
2022/04/18 03:46:06;;;;;;;28.40;16.42;;;5.70;95.90;;;;;;4944643;28;20051;-83
2022/04/18 03:48:32;;;;;;;29.63;16.27;;;5.70;96.00;;;;;;4976452;28;20049;-83
2022/04/18 03:50:57;;;;;;;27.50;15.88;;;5.70;95.90;;;;;;4960830;28;20482;-83
2022/04/18 03:53:23;;;;;;;25.75;15.15;;;5.70;95.80;;;;;;4960564;28;20066;-83
2022/04/18 03:55:49;;;;;;;21.80;12.65;;;5.70;95.70;;;;;;4944367;28;20035;-83
2022/04/18 03:58:14;;;;;;;19.83;12.45;;;5.70;95.60;;;;;;4976214;28;20101;-83
2022/04/18 04:00:42;;;;;;;17.17;11.82;;;5.70;95.50;;;;;;4977007;28;20085;-83
2022/04/18 04:03:11;;;;;;;18.25;12.32;;;5.70;95.60;;;;;;4959871;28;20122;-83
2022/04/18 04:05:38;;;;;;;17.33;11.00;;;6.00;95.60;;;;;;4960597;28;20092;-83
2022/04/18 04:08:05;;;;;;;16.45;10.82;;;5.70;95.40;;;;;;4976829;28;20038;-83
2022/04/18 04:10:31;;;;;;;17.38;11.20;;;5.70;95.30;;;;;;4944399;28;20043;-83
2022/04/18 04:12:57;;;;;;;15.88;10.02;;;5.70;95.50;;;;;;4976033;28;20055;-83
2022/04/18 04:15:22;;;;;;;14.45;10.35;;;5.70;95.30;;;;;;4976231;28;20042;-83
2022/04/18 04:17:48;;;;;;;15.52;10.30;;;5.70;95.10;;;;;;4975048;28;20042;-83
2022/04/18 04:20:14;;;;;;;13.55;10.23;;;6.50;95.20;;;;;;4975586;28;20137;-83
2022/04/18 04:22:44;;;;;;;15.80;9.98;;;5.80;95.10;;;;;;4960064;28;20398;-83
2022/04/18 04:25:10;;;;;;;16.33;10.50;;;5.80;95.10;;;;;;4975639;28;20212;-83
2022/04/18 04:27:35;;;;;;;15.93;9.95;;;5.80;95.30;;;;;;4973405;28;20133;-83
2022/04/18 04:30:02;;;;;;;14.88;10.30;;;5.70;95.20;;;;;;4957474;28;20042;-83
2022/04/18 04:32:27;;;;;;;14.77;10.43;;;5.70;95.30;;;;;;4972466;28;20085;-83
2022/04/18 04:34:53;;;;;;;15.73;10.18;;;5.70;95.20;;;;;;4957613;28;20039;-83
2022/04/18 04:37:19;;;;;;;14.35;9.70;;;5.80;95.20;;;;;;4934497;28;20055;-83
2022/04/18 04:39:45;;;;;;;16.00;10.18;;;5.70;95.30;;;;;;4957669;28;20039;-83
2022/04/18 04:42:10;;;;;;;15.63;9.70;;;5.80;95.50;;;;;;4957508;28;20045;-83
2022/04/18 04:44:36;;;;;;;14.30;10.27;;;5.70;95.60;;;;;;4958301;28;20545;-83
2022/04/18 04:47:04;;;;;;;15.15;10.13;;;5.80;95.70;;;;;;4959263;28;20034;-83
2022/04/18 04:49:29;;;;;;;14.35;9.80;;;5.70;95.50;;;;;;4959785;28;20505;-83
2022/04/18 04:51:55;;;;;;;15.57;9.93;;;5.70;95.60;;;;;;4975738;28;20039;-83
2022/04/18 04:54:21;;;;;;;13.52;9.50;;;5.80;95.50;;;;;;4958932;28;20097;-83
2022/04/18 04:56:46;;;;;;;13.98;9.00;;;5.80;95.60;;;;;;4958912;28;20513;-83
2022/04/18 04:59:12;;;;;;;14.02;9.68;;;5.90;95.70;;;;;;4975726;28;20138;-83
2022/04/18 05:01:38;;;;;;;14.63;9.43;;;5.90;95.20;;;;;;4960591;28;20042;-83
2022/04/18 05:04:04;;;;;;;14.55;9.02;;;5.90;95.40;;;;;;4958959;28;20133;-83
2022/04/18 05:06:29;;;;;;;14.95;10.07;;;6.00;95.20;;;;;;4959955;28;20093;-83
2022/04/18 05:08:55;;;;;;;15.65;9.77;;;6.00;95.40;;;;;;4973342;28;20050;-83
2022/04/18 05:11:21;;;;;;;12.70;9.18;;;6.00;95.60;;;;;;4957018;28;20082;-83
2022/04/18 05:13:47;;;;;;;14.75;9.77;;;6.00;95.90;;;;;;4973272;28;20514;-83
2022/04/18 05:16:13;;;;;;;15.32;9.63;;;6.00;96.10;;;;;;4973069;28;20046;-84
2022/04/18 05:18:39;;;;;;;13.70;9.82;;;6.10;96.40;;;;;;4977301;28;20097;-84
2022/04/18 05:21:05;;;;;;;13.23;9.43;;;6.10;96.30;;;;;;4993675;28;20133;-84
2022/04/18 05:23:31;;;;;;;14.93;9.25;;;6.40;97.10;;;;;;4994876;28;20096;-84
2022/04/18 05:25:57;;;;;;;14.00;9.25;;;6.20;96.30;;;;;;4980960;28;20485;-84
2022/04/18 05:28:22;;;;;;;13.50;9.50;;;6.40;95.80;;;;;;4980596;28;20058;-84
2022/04/18 05:30:48;;;;;;;13.23;9.63;;;6.50;96.50;;;;;;4980023;28;20034;-84
2022/04/18 05:33:14;;;;;;;15.43;10.23;;;6.60;96.90;;;;;;4979605;28;20042;-84
2022/04/18 05:35:40;;;;;;;16.20;10.07;;;6.70;96.20;;;;;;4981216;28;20045;-84
2022/04/18 05:38:06;;;;;;;15.27;9.70;;;6.80;96.20;;;;;;4980754;28;20035;-84
2022/04/18 05:40:31;;;;;;;14.80;9.70;;;6.80;95.80;;;;;;4980785;28;20046;-84
2022/04/18 05:42:57;;;;;;;14.43;8.90;;;7.10;95.90;;;;;;4980642;28;20401;-84
2022/04/18 05:45:23;;;;;;;12.57;9.10;;;7.00;95.30;;;;;;4980879;28;20050;-84
2022/04/18 05:47:49;;;;;;;12.35;9.43;;;7.60;94.90;;;;;;4995939;28;20045;-84
2022/04/18 05:50:15;;;;;;;15.15;9.70;;;7.70;95.10;;;;;;4994636;28;20050;-83
2022/04/18 05:52:40;;;;;;;14.10;9.38;;;7.40;95.80;;;;;;4984014;28;20029;-83
2022/04/18 05:55:07;;;;;;;13.57;9.15;;;7.70;94.80;;;;;;4961882;28;20043;-83
2022/04/18 05:57:33;;;;;;;15.35;9.95;;;7.80;92.30;;;;;;4964726;28;20042;-83
2022/04/18 05:59:58;;;;;;;15.07;8.95;;;8.10;94.70;;;;;;4980834;28;20462;-83
2022/04/18 06:02:25;;;;;;;13.95;9.80;;;8.40;90.40;;;;;;4963349;28;20052;-83
2022/04/18 06:04:50;;;;;;;13.13;9.70;;;8.60;92.00;;;;;;4966174;28;20034;-83
2022/04/18 06:07:16;;;;;;;14.07;9.10;;;8.90;87.50;;;;;;4968651;28;20038;-83
2022/04/18 06:09:42;;;;;;;13.13;9.18;;;9.20;87.90;;;;;;4984092;28;20401;-83
2022/04/18 06:12:08;;;;;;;14.52;9.73;;;9.60;84.90;;;;;;4963379;28;20050;-83
2022/04/18 06:14:34;;;;;;;13.82;9.07;;;9.90;82.40;;;;;;4964155;28;20058;-83
2022/04/18 06:16:59;;;;;;;13.02;9.38;;;10.10;78.30;;;;;;4979528;28;20837;-83
2022/04/18 06:19:25;;;;;;;13.43;9.27;;;10.30;81.00;;;;;;4979205;28;20125;-83
2022/04/18 06:21:51;;;;;;;11.95;9.15;;;10.40;77.30;;;;;;4979799;28;20053;-83
2022/04/18 06:24:18;;;;;;;13.02;8.70;;;10.60;76.20;;;;;;4962533;28;20042;-83
2022/04/18 06:26:44;;;;;;;12.05;8.82;;;10.90;74.80;;;;;;4978339;28;20053;-83
2022/04/18 06:29:10;;;;;;;13.95;9.30;;;11.10;70.40;;;;;;4962364;28;20043;-83
2022/04/18 06:31:35;;;;;;;14.45;9.20;;;11.40;74.30;;;;;;4991113;28;20046;-83
2022/04/18 06:34:01;;;;;;;13.35;9.38;;;11.70;71.10;;;;;;4977541;28;20089;-83
2022/04/18 06:36:27;;;;;;;14.00;9.38;;;12.00;69.10;;;;;;4959110;28;20090;-83
2022/04/18 06:38:52;;;;;;;13.48;9.35;;;12.30;66.10;;;;;;4958720;28;20042;-83
2022/04/18 06:41:18;;;;;;;15.07;8.55;;;12.60;65.20;;;;;;4959052;28;20058;-83
2022/04/18 06:43:43;;;;;;;12.15;9.13;;;12.90;64.00;;;;;;4958713;28;20046;-83
2022/04/18 06:46:09;;;;;;;12.30;8.45;;;13.30;62.90;;;;;;4978710;28;20496;-83
2022/04/18 06:48:35;;;;;;;11.82;7.93;;;13.60;61.40;;;;;;4976493;28;20456;-83
2022/04/18 06:51:01;;;;;;;11.32;7.75;;;13.90;58.10;;;;;;4974546;28;20500;-83
2022/04/18 06:53:28;;;;;;;11.00;7.60;;;13.70;54.80;;;;;;4965689;28;20034;-83
2022/04/18 06:58:38;;;;;;;11.98;7.70;;;13.40;56.30;;;;;;4989542;28;20050;-84
2022/04/18 07:01:05;;;;;;;12.63;7.60;;;13.40;57.60;;;;;;4966513;28;20053;-84
2022/04/18 07:03:31;;;;;;;12.02;7.25;;;13.60;55.50;;;;;;4972451;28;20046;-84
2022/04/18 07:05:56;;;;;;;11.30;7.70;;;13.80;53.80;;;;;;4992522;28;20034;-84
2022/04/18 07:08:22;;;;;;;11.18;7.45;;;13.80;54.30;;;;;;4974141;28;20034;-84
2022/04/18 07:10:48;;;;;;;11.57;7.43;;;13.80;54.00;;;;;;4970413;28;20053;-84
2022/04/18 07:13:14;;;;;;;11.13;7.53;;;13.80;55.20;;;;;;4974334;28;20046;-84
2022/04/18 07:15:40;;;;;;;10.57;7.55;;;14.00;56.40;;;;;;4980448;28;20046;-84
2022/04/18 07:18:05;;;;;;;11.50;7.65;;;14.10;56.20;;;;;;4975426;28;20078;-84
2022/04/18 07:20:31;;;;;;;11.48;7.40;;;14.30;53.40;;;;;;4969221;28;20117;-84
2022/04/18 07:22:57;;;;;;;10.88;6.97;;;14.40;55.20;;;;;;4988550;28;20383;-84
2022/04/18 07:25:23;;;;;;;10.63;7.53;;;14.50;53.10;;;;;;4986962;28;20532;-84
2022/04/18 07:27:49;;;;;;;10.18;7.13;;;14.50;53.10;;;;;;4958457;28;20466;-84
2022/04/18 07:30:15;;;;;;;11.98;7.55;;;14.60;52.80;;;;;;4993290;28;20038;-84
2022/04/18 07:32:42;;;;;;;11.77;7.38;;;14.70;52.30;;;;;;4960110;28;20121;-84
2022/04/18 07:35:09;;;;;;;11.63;7.32;;;14.70;51.80;;;;;;4980680;28;20086;-84
2022/04/18 07:37:35;;;;;;;11.95;7.50;;;14.70;51.60;;;;;;4957832;28;20043;-84
2022/04/18 07:40:01;;;;;;;10.13;7.10;;;14.80;51.50;;;;;;4958105;28;20101;-84
2022/04/18 07:42:27;;;;;;;10.48;7.53;;;15.00;52.30;;;;;;4957992;28;20035;-84
2022/04/18 07:44:52;;;;;;;10.18;7.72;;;15.10;53.50;;;;;;4957840;28;20046;-84
2022/04/18 07:47:18;;;;;;;11.75;7.13;;;15.20;51.70;;;;;;4967234;28;20081;-84
2022/04/18 07:49:44;;;;;;;12.25;7.65;;;15.10;50.00;;;;;;4974731;28;20133;-84
2022/04/18 07:52:11;;;;;;;10.48;7.15;;;15.10;51.10;;;;;;4974865;28;20042;-83
2022/04/18 07:54:38;;;;;;;9.88;7.00;;;15.30;50.80;;;;;;4974367;28;20039;-83
2022/04/18 07:57:07;;;;;;;10.15;7.28;;;15.50;52.60;;;;;;4990368;28;20050;-83
2022/04/18 07:59:33;;;;;;;10.45;7.07;;;15.90;54.00;;;;;;4974742;28;20053;-83
2022/04/18 08:01:58;;;;;;;12.27;7.32;;;16.00;48.30;;;;;;4973999;28;20051;-83
2022/04/18 08:04:24;;;;;;;9.77;6.85;;;16.30;49.70;;;;;;4973506;28;20043;-83
2022/04/18 08:06:50;;;;;;;9.70;6.50;;;16.60;47.40;;;;;;4958521;28;20059;-83
2022/04/18 08:09:15;;;;;;;8.80;6.25;;;16.80;47.80;;;;;;4957961;28;20081;-83
2022/04/18 08:11:41;;;;;;;9.80;6.28;;;16.70;45.90;;;;;;4957808;28;20130;-84
2022/04/18 08:14:07;;;;;;;9.43;5.95;;;16.50;45.60;;;;;;4983057;28;20050;-84
2022/04/18 08:16:33;;;;;;;10.05;5.45;;;16.80;46.00;;;;;;4993522;28;20125;-84
2022/04/18 08:18:59;;;;;;;10.90;6.13;;;17.00;42.20;;;;;;4992971;28;20552;-84
2022/04/18 08:21:24;;;;;;;9.85;6.10;;;17.40;45.70;;;;;;4994033;28;20502;-84
2022/04/18 08:23:51;;;;;;;10.15;6.10;;;17.60;45.10;;;;;;4981086;28;20039;-84
2022/04/18 08:26:19;;;;;;;9.25;5.63;;;17.30;42.10;;;;;;5001305;28;20042;-83
2022/04/18 08:28:45;;;;;;;8.30;5.53;;;17.30;42.90;;;;;;4995927;28;20045;-83
2022/04/18 08:31:11;;;;;;;7.55;5.22;;;17.50;42.90;;;;;;4992493;28;20133;-84
2022/04/18 08:33:37;;;;;;;9.75;5.75;;;17.60;42.40;;;;;;4989976;28;20035;-84
2022/04/18 08:36:03;;;;;;;9.15;5.90;;;17.60;42.10;;;;;;4976585;28;20486;-84
2022/04/18 08:38:29;;;;;;;8.95;5.47;;;17.60;42.30;;;;;;4977839;28;20192;-84
2022/04/18 08:40:58;;;;;;;10.05;5.93;;;17.70;42.50;;;;;;4975710;28;20088;-84
2022/04/18 08:43:23;;;;;;;9.23;5.70;;;17.80;41.50;;;;;;4989398;28;20042;-84
2022/04/18 08:45:49;;;;;;;7.90;5.65;;;18.10;41.30;;;;;;4992644;28;20520;-83
2022/04/18 08:53:46;;;;;;;8.85;5.90;;;18.40;40.60;;;;;;4968824;28;20049;-83
2022/04/18 08:56:12;;;;;;;11.23;6.25;;;18.70;43.00;;;;;;4978310;28;20039;-83
2022/04/18 08:58:39;;;;;;;9.05;6.10;;;19.10;43.80;;;;;;4982009;28;20039;-83
2022/04/18 09:01:05;;;;;;;9.27;6.28;;;19.20;39.60;;;;;;4999802;28;21574;-83
2022/04/18 09:03:30;;;;;;;8.90;6.07;;;19.00;39.10;;;;;;4981342;28;20038;-83
2022/04/18 09:06:10;;;;;;;7.75;5.25;;;18.80;41.60;;;;;;4968754;28;20046;-83
2022/04/18 09:08:54;;;;;;;10.82;5.60;;;19.10;41.60;;;;;;4996218;28;20037;-83
2022/04/18 09:11:32;;;;;;;9.13;6.35;;;19.50;39.90;;;;;;4996332;28;20060;-83
2022/04/18 09:14:12;;;;;;;8.60;5.35;;;19.70;41.50;;;;;;4995666;28;20498;-83
2022/04/18 09:16:41;;;;;;;8.48;5.53;;;19.90;39.50;;;;;;4997260;28;20158;-83
2022/04/18 09:19:14;;;;;;;8.80;5.47;;;20.10;39.50;;;;;;4984345;28;20497;-83
2022/04/18 09:21:55;;;;;;;8.68;5.32;;;20.20;38.40;;;;;;5001935;28;20038;-83
2022/04/18 09:24:32;;;;;;;8.63;5.28;;;20.00;36.80;;;;;;4984445;28;20038;-83
2022/04/18 09:27:29;;;;;;;8.15;4.97;;;20.00;39.60;;;;;;4979257;28;20049;-84
2022/04/18 09:30:08;;;;;;;11.18;5.55;;;20.00;37.30;;;;;;5011021;28;20501;-84
2022/04/18 09:32:33;;;;;;;9.38;5.32;;;20.00;39.30;;;;;;4974636;28;20383;-84
2022/04/18 09:35:02;;;;;;;9.35;5.80;;;20.10;39.90;;;;;;4961001;28;20088;-84
2022/04/18 09:37:29;;;;;;;8.60;5.28;;;20.10;37.60;;;;;;4987342;28;20035;-84
2022/04/18 09:39:55;;;;;;;8.90;5.30;;;20.20;38.90;;;;;;4978288;28;20494;-84
2022/04/18 09:42:23;;;;;;;8.85;5.20;;;20.20;37.20;;;;;;4994492;28;20039;-84
2022/04/18 09:44:50;;;;;;;9.20;5.40;;;20.20;39.00;;;;;;4977501;28;20045;-84
2022/04/18 09:47:17;;;;;;;7.65;5.15;;;20.30;35.70;;;;;;4995351;28;20038;-83
2022/04/18 09:49:43;;;;;;;10.18;5.78;;;20.40;36.60;;;;;;4980224;28;20097;-83
2022/04/18 09:52:17;;;;;;;7.82;5.13;;;20.50;37.50;;;;;;4967531;28;20042;-83
2022/04/18 09:54:52;;;;;;;9.93;5.18;;;20.60;37.10;;;;;;4996841;28;20128;-83
2022/04/18 09:57:26;;;;;;;8.45;5.07;;;20.70;35.50;;;;;;4997551;28;20486;-83
2022/04/18 09:59:55;;;;;;;7.90;5.20;;;20.90;37.60;;;;;;4980610;28;20493;-83
2022/04/18 10:02:21;;;;;;;8.23;5.30;;;21.00;35.00;;;;;;4988739;28;20038;-83
2022/04/18 10:04:47;;;;;;;10.00;6.00;;;20.90;34.60;;;;;;4975322;28;20044;-83
2022/04/18 10:07:14;;;;;;;10.07;5.85;;;20.80;37.50;;;;;;4979795;28;20034;-83
2022/04/18 10:09:43;;;;;;;8.68;5.97;;;20.80;35.20;;;;;;4975942;28;20101;-83
2022/04/18 10:12:12;;;;;;;8.52;5.68;;;21.00;36.30;;;;;;4977085;28;20047;-83
2022/04/18 10:14:40;;;;;;;8.57;4.75;;;21.10;35.70;;;;;;4992058;28;20055;-83
2022/04/18 10:17:10;;;;;;;7.88;4.63;;;21.30;34.30;;;;;;4992050;28;20042;-83
2022/04/18 10:20:11;;;;;;;7.50;4.82;;;21.20;34.30;;;;;;4980234;28;20049;-84
2022/04/18 10:22:42;;;;;;;8.30;5.60;;;21.10;34.30;;;;;;4963827;28;20054;-84
2022/04/18 10:25:36;;;;;;;7.85;5.63;;;21.10;34.40;;;;;;4976394;28;20043;-84
2022/04/18 10:28:29;;;;;;;7.65;5.10;;;21.10;33.60;;;;;;4976334;28;20047;-84
2022/04/18 10:31:02;;;;;;;8.13;4.80;;;21.20;31.50;;;;;;4981670;28;20498;-84
2022/04/18 10:33:28;;;;;;;7.70;5.07;;;21.10;34.60;;;;;;4993670;28;20050;-83
2022/04/18 10:36:00;;;;;;;8.32;5.20;;;21.00;33.70;;;;;;4977689;28;20034;-83
2022/04/18 10:38:27;;;;;;;8.40;5.10;;;21.10;33.40;;;;;;4994771;28;20061;-83
2022/04/18 10:43:53;;;;;;;6.80;4.70;;;20.90;32.50;;;;;;4979615;28;20105;-83
2022/04/18 10:46:19;;;;;;;9.10;4.63;;;20.90;34.50;;;;;;4974953;28;20050;-83
2022/04/18 10:48:57;;;;;;;7.03;3.55;;;21.00;30.00;;;;;;5002000;28;20135;-83
2022/04/18 10:51:27;;;;;;;6.30;3.92;;;21.00;33.00;;;;;;4993859;28;20073;-83
2022/04/18 10:54:06;;;;;;;7.93;3.95;;;21.10;33.10;;;;;;4974171;28;20082;-83
2022/04/18 10:56:47;;;;;;;7.25;4.20;;;21.30;34.50;;;;;;4993304;28;20034;-83
2022/04/18 10:59:14;;;;;;;7.95;4.65;;;21.20;31.70;;;;;;5008756;28;20031;-83
2022/04/18 11:01:40;;;;;;;6.93;4.60;;;20.80;35.40;;;;;;4980638;28;20056;-83
2022/04/18 11:04:11;;;;;;;6.97;3.92;;;20.80;33.10;;;;;;4975330;28;20081;-83
2022/04/18 11:06:37;;;;;;;7.97;4.47;;;20.60;30.20;;;;;;4977737;28;20057;-83
2022/04/18 11:09:14;;;;;;;7.03;4.20;;;20.40;34.00;;;;;;4996542;28;20449;-83
2022/04/18 11:12:05;;;;;;;6.90;4.13;;;20.30;32.70;;;;;;4979682;28;20045;-83
2022/04/18 11:14:41;;;;;;;7.00;3.92;;;20.40;33.80;;;;;;4976430;28;20494;-83
2022/04/18 11:17:10;;;;;;;6.80;4.18;;;20.40;34.70;;;;;;4975820;28;20081;-83
2022/04/18 11:19:41;;;;;;;7.72;4.47;;;20.50;33.20;;;;;;4992704;28;20112;-83
2022/04/18 11:22:24;;;;;;;7.37;4.13;;;20.50;32.50;;;;;;4993130;28;20038;-83
2022/04/18 11:24:51;;;;;;;7.22;4.10;;;20.50;36.90;;;;;;4977658;28;20037;-83
2022/04/18 11:27:22;;;;;;;6.93;4.28;;;20.60;33.40;;;;;;4990620;28;20047;-83
2022/04/18 11:29:54;;;;;;;6.13;3.75;;;20.50;30.70;;;;;;4995667;28;20406;-83
2022/04/18 11:32:22;;;;;;;6.63;4.50;;;20.40;31.10;;;;;;4978100;28;20042;-83
2022/04/18 11:34:53;;;;;;;7.10;4.70;;;20.30;34.70;;;;;;4978051;28;20065;-83
2022/04/18 11:37:26;;;;;;;32.53;5.93;;;20.50;36.20;;;;;;4981502;28;20391;-83
2022/04/18 11:39:55;;;;;;;9.02;4.78;;;20.80;31.20;;;;;;4993950;28;20525;-83
2022/04/18 11:42:25;;;;;;;6.70;4.30;;;20.90;31.90;;;;;;4976155;28;20122;-83
2022/04/18 11:44:54;;;;;;;7.18;4.50;;;21.00;33.20;;;;;;4997703;28;20037;-83
2022/04/18 11:47:21;;;;;;;7.28;4.55;;;20.80;33.40;;;;;;5014699;28;20115;-83
2022/04/18 11:49:50;;;;;;;7.22;4.32;;;20.90;33.00;;;;;;4999658;28;20081;-83
2022/04/18 11:52:21;;;;;;;8.15;4.30;;;21.00;31.30;;;;;;5000652;28;20042;-83
2022/04/18 11:54:59;;;;;;;7.07;4.32;;;20.80;34.50;;;;;;5020251;28;20053;-83
2022/04/18 11:57:26;;;;;;;7.43;4.07;;;20.90;33.80;;;;;;5003239;28;20042;-83
2022/04/18 11:59:52;;;;;;;6.85;4.28;;;20.90;32.30;;;;;;5020225;28;20077;-83
2022/04/18 12:07:50;;;;;;;7.10;4.25;;;20.90;32.00;;;;;;4965938;28;20445;-83
2022/04/18 12:10:28;;;;;;;8.50;4.60;;;20.70;33.10;;;;;;4962602;28;20125;-83
2022/04/18 12:12:54;;;;;;;7.57;4.25;;;20.80;32.00;;;;;;4962570;28;20059;-83
2022/04/18 12:15:22;;;;;;;8.38;4.65;;;20.90;32.20;;;;;;4963157;28;20050;-83
2022/04/18 12:17:49;;;;;;;7.55;4.28;;;20.80;32.40;;;;;;4962890;28;20050;-82
2022/04/18 12:20:22;;;;;;;9.23;4.57;;;20.90;31.50;;;;;;4980153;28;20054;-83
2022/04/18 12:22:59;;;;;;;7.85;4.20;;;20.80;30.20;;;;;;4963200;28;20475;-83
2022/04/18 12:25:27;;;;;;;7.10;4.15;;;20.80;31.80;;;;;;4962952;28;20051;-83
2022/04/18 12:27:54;;;;;;;6.63;3.95;;;21.00;33.30;;;;;;4979654;28;20050;-83
2022/04/18 12:30:20;;;;;;;7.22;4.13;;;20.90;32.00;;;;;;4962452;28;20495;-83
2022/04/18 12:32:49;;;;;;;6.57;3.97;;;20.80;30.80;;;;;;4964524;28;20117;-83
2022/04/18 12:35:36;;;;;;;7.53;4.55;;;20.70;35.30;;;;;;4984270;28;20047;-83
2022/04/18 12:38:10;;;;;;;7.28;5.00;;;20.70;32.20;;;;;;4979952;28;20109;-83
2022/04/18 12:40:45;;;;;;;6.88;4.18;;;20.70;34.10;;;;;;4983722;28;20078;-83
2022/04/18 12:43:16;;;;;;;7.28;4.43;;;20.70;32.40;;;;;;4966498;28;20069;-83
2022/04/18 12:45:51;;;;;;;7.50;4.65;;;20.70;30.20;;;;;;4982066;28;20047;-83
2022/04/18 12:48:39;;;;;;;6.97;4.40;;;20.80;31.50;;;;;;4964265;28;20043;-83
2022/04/18 12:51:06;;;;;;;7.60;4.25;;;20.70;32.80;;;;;;4966504;28;20054;-83
2022/04/18 12:53:53;;;;;;;7.30;4.07;;;20.70;32.50;;;;;;4966418;28;20384;-83
2022/04/18 12:56:23;;;;;;;8.07;4.95;;;20.70;32.10;;;;;;4965580;28;20039;-83
2022/04/18 12:59:03;;;;;;;6.82;4.30;;;20.80;32.10;;;;;;4964292;28;20482;-83
2022/04/18 13:01:36;;;;;;;7.93;4.72;;;20.60;31.40;;;;;;4980437;28;20126;-83
2022/04/18 13:04:05;;;;;;;6.47;3.75;;;20.60;31.20;;;;;;4980214;28;20050;-83
2022/04/18 13:06:33;;;;;;;5.88;3.53;;;20.80;30.80;;;;;;4981612;28;20042;-83
2022/04/18 13:09:08;;;;;;;6.47;3.35;;;20.90;32.80;;;;;;4967515;28;20047;-83
2022/04/18 13:11:38;;;;;;;5.22;3.35;;;20.80;31.40;;;;;;4966578;28;20074;-83
2022/04/18 13:14:04;;;;;;;5.95;3.40;;;20.80;32.80;;;;;;4967757;28;20043;-83
2022/04/18 13:16:30;;;;;;;7.20;3.53;;;20.70;30.50;;;;;;4983460;28;20117;-83